createdAt,value
2023-01-09T00:01:26.105Z,99835.97
2023-01-09T00:03:54.229Z,99829.03
2023-01-09T00:06:22.587Z,99824.72
2023-01-09T00:08:50.724Z,99813.47
2023-01-09T00:11:18.725Z,99805.50
2023-01-09T00:13:48.243Z,99822.19
2023-01-09T00:16:16.785Z,99818.84
2023-01-09T00:18:44.810Z,99811.06
2023-01-09T00:21:14.475Z,99813.72
2023-01-09T00:23:42.562Z,99812.88
2023-01-09T00:26:13.019Z,99817.31
2023-01-09T00:28:41.577Z,99812.13
2023-01-09T00:31:11.754Z,99814.72
2023-01-09T00:33:42.815Z,99812.22
2023-01-09T00:36:11.439Z,99777.78
2023-01-09T00:38:39.919Z,99808.69
2023-01-09T00:41:11.012Z,99683.25
2023-01-09T00:43:45.153Z,99801.03
2023-01-09T00:46:15.607Z,99798.44
2023-01-09T00:48:46.872Z,99774.88
2023-01-09T00:51:16.003Z,99782.13
2023-01-09T00:53:44.560Z,99779.53
2023-01-09T00:56:18.104Z,99789.94
2023-01-09T00:58:46.860Z,99768.88
2023-01-09T01:01:16.387Z,99784.88
2023-01-09T01:03:44.329Z,99793.53
2023-01-09T01:06:29.651Z,99799.56
2023-01-09T01:08:57.635Z,99793.53
2023-01-09T01:11:25.713Z,99803.03
2023-01-09T01:13:53.581Z,99794.44
2023-01-09T01:16:23.127Z,99786.38
2023-01-09T01:18:51.621Z,99804.81
2023-01-09T01:21:19.794Z,99810.03
2023-01-09T01:23:47.872Z,99797.03
2023-01-09T01:26:17.651Z,99799.66
2023-01-09T01:28:45.785Z,99797.84
2023-01-09T01:31:18.277Z,99804.09
2023-01-09T01:33:47.616Z,99800.63
2023-01-09T01:36:17.612Z,99780.53
2023-01-09T01:38:47.084Z,99802.38
2023-01-09T01:41:29.414Z,99795.47
2023-01-09T01:43:59.793Z,99763.63
2023-01-09T01:46:27.948Z,99788.34
2023-01-09T01:49:01.046Z,99789.41
2023-01-09T01:51:32.697Z,99796.38
2023-01-09T01:54:07.916Z,99772.63
2023-01-09T01:56:39.744Z,99801.66
2023-01-09T01:59:12.991Z,99733.00
2023-01-09T02:01:44.085Z,99795.59
2023-01-09T02:04:14.069Z,99706.44
2023-01-09T02:06:43.706Z,99770.09
2023-01-09T02:09:15.470Z,99780.81
2023-01-09T02:11:46.719Z,99786.16
2023-01-09T02:14:15.339Z,99786.28
2023-01-09T02:16:52.718Z,99770.72
2023-01-09T02:19:50.924Z,99756.47
2023-01-09T02:22:31.840Z,99772.25
2023-01-09T02:25:27.193Z,99783.78
2023-01-09T02:28:32.967Z,99780.38
2023-01-09T02:31:09.283Z,99789.88
2023-01-09T02:33:48.851Z,99781.25
2023-01-09T02:36:24.740Z,99779.44
2023-01-09T02:39:09.111Z,99763.81
2023-01-09T02:41:44.393Z,99772.69
2023-01-09T02:44:22.010Z,99763.16
2023-01-09T02:47:02.104Z,99770.09
2023-01-09T02:49:31.144Z,99770.94
2023-01-09T02:52:08.205Z,99771.88
2023-01-09T02:54:50.772Z,99767.63
2023-01-09T02:57:39.803Z,99777.16
2023-01-09T03:00:22.093Z,99740.78
2023-01-09T03:02:54.512Z,99773.75
2023-01-09T03:05:28.828Z,99771.22
2023-01-09T03:08:02.654Z,99772.97
2023-01-09T03:10:35.991Z,99780.81
2023-01-09T03:13:04.660Z,99779.06
2023-01-09T03:15:35.948Z,99784.25
2023-01-09T03:18:07.089Z,99780.00
2023-01-09T03:20:35.846Z,99749.91
2023-01-09T03:23:06.335Z,99747.38
2023-01-09T03:25:34.734Z,99775.72
2023-01-09T03:28:06.995Z,99765.91
2023-01-09T03:30:37.273Z,99782.69
2023-01-09T03:33:06.576Z,99777.50
2023-01-09T03:35:34.438Z,99777.50
2023-01-09T03:38:02.388Z,99774.03
2023-01-09T03:40:30.284Z,99767.72
2023-01-09T03:42:58.188Z,99777.44
2023-01-09T03:45:26.147Z,99755.66
2023-01-09T03:47:54.154Z,99774.97
2023-01-09T03:50:23.360Z,99768.78
2023-01-09T03:52:51.341Z,99755.69
2023-01-09T03:55:19.257Z,99775.84
2023-01-09T03:57:47.042Z,99773.91
2023-01-09T04:00:15.912Z,99772.25
2023-01-09T04:02:43.886Z,99782.09
2023-01-09T04:05:12.135Z,99791.63
2023-01-09T04:07:41.707Z,99781.25
2023-01-09T04:10:11.024Z,99783.91
2023-01-09T04:12:39.122Z,99783.06
2023-01-09T04:15:08.245Z,99783.97
2023-01-09T04:17:36.178Z,99792.63
2023-01-09T04:20:04.319Z,99788.31
2023-01-09T04:22:32.625Z,99795.34
2023-01-09T04:25:01.929Z,99797.97
2023-01-09T04:27:29.793Z,99792.78
2023-01-09T04:29:57.815Z,99793.63
2023-01-09T04:32:27.626Z,99793.56
2023-01-09T04:34:55.987Z,99798.75
2023-01-09T04:37:25.416Z,99793.63
2023-01-09T04:39:56.035Z,99793.69
2023-01-09T04:42:25.670Z,99792.84
2023-01-09T04:44:54.527Z,99779.66
2023-01-09T04:47:23.838Z,99780.53
2023-01-09T04:49:52.085Z,99783.25
2023-01-09T04:52:20.149Z,99790.25
2023-01-09T04:54:47.954Z,99791.97
2023-01-09T04:57:15.915Z,99790.19
2023-01-09T04:59:45.266Z,99796.28
2023-01-09T05:02:13.439Z,99801.47
2023-01-09T05:04:41.472Z,99751.22
2023-01-09T05:07:09.421Z,99793.69
2023-01-09T05:09:37.262Z,99752.16
2023-01-09T05:12:05.570Z,99795.50
2023-01-09T05:14:33.519Z,99795.50
2023-01-09T05:17:02.738Z,99797.31
2023-01-09T05:19:30.747Z,99762.81
2023-01-09T05:21:58.629Z,99804.22
2023-01-09T05:24:26.493Z,99797.25
2023-01-09T05:26:54.470Z,99798.09
2023-01-09T05:29:22.428Z,99795.50
2023-01-09T05:31:50.272Z,99792.78
2023-01-09T05:34:19.597Z,99804.22
2023-01-09T05:36:47.619Z,99808.53
2023-01-09T05:39:15.482Z,99811.13
2023-01-09T05:41:43.401Z,99813.72
2023-01-09T05:44:11.367Z,99823.28
2023-01-09T05:46:39.283Z,99816.38
2023-01-09T05:49:07.304Z,99820.78
2023-01-09T05:51:36.660Z,99811.34
2023-01-09T05:54:05.759Z,99822.66
2023-01-09T05:56:33.730Z,99795.28
2023-01-09T05:59:01.795Z,99814.94
2023-01-09T06:01:30.213Z,99819.19
2023-01-09T06:03:58.257Z,99835.66
2023-01-09T06:06:26.312Z,99783.69
2023-01-09T06:08:55.529Z,99825.19
2023-01-09T06:11:23.487Z,99827.84
2023-01-09T06:13:51.434Z,99758.41
2023-01-09T06:16:19.539Z,99810.63
2023-01-09T06:18:47.549Z,99800.84
2023-01-09T06:21:15.496Z,99813.22
2023-01-09T06:23:43.365Z,99761.22
2023-01-09T06:26:12.666Z,99812.28
2023-01-09T06:28:40.586Z,99801.78
2023-01-09T06:31:08.489Z,99805.25
2023-01-09T06:33:36.561Z,99815.81
2023-01-09T06:36:04.895Z,99814.97
2023-01-09T06:38:32.716Z,99821.88
2023-01-09T06:41:00.687Z,99820.94
2023-01-09T06:43:29.947Z,99833.94
2023-01-09T06:45:57.835Z,99820.72
2023-01-09T06:48:26.396Z,99790.75
2023-01-09T06:50:54.510Z,99828.63
2023-01-09T06:53:22.428Z,99800.25
2023-01-09T06:55:50.586Z,99834.69
2023-01-09T06:58:18.519Z,99813.63
2023-01-09T07:00:49.374Z,99808.31
2023-01-09T07:03:19.973Z,99834.81
2023-01-09T07:05:48.198Z,99820.63
2023-01-09T07:08:16.088Z,99847.06
2023-01-09T07:10:44.673Z,99853.19
2023-01-09T07:13:12.633Z,99861.06
2023-01-09T07:15:40.605Z,99861.06
2023-01-09T07:18:10.103Z,99818.69
2023-01-09T07:20:40.874Z,99824.81
2023-01-09T07:23:09.137Z,99853.16
2023-01-09T07:25:37.383Z,99866.25
2023-01-09T07:28:05.339Z,99869.66
2023-01-09T07:30:33.856Z,99870.44
2023-01-09T07:33:03.918Z,99829.50
2023-01-09T07:35:33.580Z,99885.06
2023-01-09T07:38:01.527Z,99885.13
2023-01-09T07:40:29.579Z,99867.47
2023-01-09T07:42:57.463Z,99891.16
2023-01-09T07:45:25.455Z,99892.03
2023-01-09T07:47:53.554Z,99894.69
2023-01-09T07:50:21.518Z,99885.03
2023-01-09T07:52:50.955Z,99894.75
2023-01-09T07:55:18.952Z,99900.81
2023-01-09T07:57:49.922Z,99904.31
2023-01-09T08:00:18.687Z,99895.53
2023-01-09T08:02:46.699Z,99907.84
2023-01-09T08:05:15.950Z,99904.47
2023-01-09T08:07:44.306Z,99903.63
2023-01-09T08:10:14.276Z,99875.34
2023-01-09T08:12:44.203Z,99910.59
2023-01-09T08:15:12.885Z,99884.19
2023-01-09T08:17:42.601Z,99896.69
2023-01-09T08:20:12.334Z,99885.25
2023-01-09T08:22:41.855Z,99906.25
2023-01-09T08:25:12.428Z,99901.88
2023-01-09T08:27:42.619Z,99901.97
2023-01-09T08:30:11.784Z,99883.25
2023-01-09T08:32:40.210Z,99892.44
2023-01-09T08:35:09.247Z,99888.94
2023-01-09T08:37:37.369Z,99887.78
2023-01-09T08:40:05.704Z,99907.06
2023-01-09T08:42:51.081Z,99907.06
2023-01-09T08:45:37.775Z,99911.31
2023-01-09T08:48:06.464Z,99924.31
2023-01-09T08:50:34.339Z,99930.31
2023-01-09T08:53:02.170Z,99934.63
2023-01-09T08:55:30.167Z,99917.34
2023-01-09T08:57:58.037Z,99914.81
2023-01-09T09:00:27.447Z,99920.06
2023-01-09T09:02:57.457Z,99921.03
2023-01-09T09:05:26.569Z,99906.13
2023-01-09T09:07:55.844Z,99910.50
2023-01-09T09:10:25.128Z,99924.59
2023-01-09T09:12:54.922Z,99930.59
2023-01-09T09:15:24.611Z,99898.00
2023-01-09T09:17:55.758Z,99927.19
2023-01-09T09:20:25.011Z,99918.63
2023-01-09T09:22:53.489Z,99923.03
2023-01-09T09:25:22.504Z,99914.47
2023-01-09T09:27:50.547Z,99875.53
2023-01-09T09:30:20.648Z,99865.84
2023-01-09T09:32:49.730Z,99918.88
2023-01-09T09:35:20.994Z,99900.44
2023-01-09T09:37:55.382Z,99903.75
2023-01-09T09:40:36.617Z,99920.50
2023-01-09T09:43:52.003Z,99916.97
2023-01-09T09:46:30.196Z,99914.34
2023-01-09T09:49:02.789Z,99918.66
2023-01-09T09:51:45.604Z,99917.06
2023-01-09T09:54:17.037Z,99909.78
2023-01-09T09:56:50.728Z,99917.19
2023-01-09T09:59:22.027Z,99862.25
2023-01-09T10:01:56.476Z,99914.69
2023-01-09T10:04:27.446Z,99917.34
2023-01-09T10:07:01.336Z,99913.91
2023-01-09T10:09:42.636Z,99899.81
2023-01-09T10:12:25.483Z,99913.03
2023-01-09T10:14:53.484Z,99919.06
2023-01-09T10:17:53.274Z,99921.66
2023-01-09T10:20:43.611Z,99925.06
2023-01-09T10:23:28.740Z,99925.03
2023-01-09T10:26:02.572Z,99929.38
2023-01-09T10:28:51.467Z,99909.53
2023-01-09T10:31:30.690Z,99917.44
2023-01-09T10:34:10.366Z,99914.97
2023-01-09T10:36:52.298Z,99903.78
2023-01-09T10:39:25.897Z,99909.09
2023-01-09T10:42:01.036Z,99891.63
2023-01-09T10:44:35.719Z,99892.78
2023-01-09T10:47:10.091Z,99894.44
2023-01-09T10:49:39.585Z,99906.50
2023-01-09T10:52:17.071Z,99911.81
2023-01-09T10:54:53.366Z,99913.56
2023-01-09T10:57:35.947Z,99914.44
2023-01-09T11:00:04.887Z,99906.38
2023-01-09T11:02:35.315Z,99900.41
2023-01-09T11:05:03.346Z,99910.03
2023-01-09T11:07:36.903Z,99887.16
2023-01-09T11:10:08.743Z,99897.81
2023-01-09T11:12:37.906Z,99909.03
2023-01-09T11:15:29.068Z,99892.25
2023-01-09T11:18:18.372Z,99894.22
2023-01-09T11:20:46.462Z,99899.47
2023-01-09T11:23:32.784Z,99898.28
2023-01-09T11:26:04.479Z,99904.50
2023-01-09T11:28:32.632Z,99902.47
2023-01-09T11:31:02.630Z,99918.34
2023-01-09T11:33:32.559Z,99917.41
2023-01-09T11:36:08.117Z,99897.91
2023-01-09T11:38:49.533Z,99921.66
2023-01-09T11:41:22.201Z,99921.59
2023-01-09T11:43:52.335Z,99862.09
2023-01-09T11:46:39.663Z,99924.03
2023-01-09T11:49:23.571Z,99926.50
2023-01-09T11:52:16.470Z,99919.56
2023-01-09T11:54:48.720Z,99896.47
2023-01-09T11:57:18.571Z,99911.50
2023-01-09T11:59:46.555Z,99911.59
2023-01-09T12:02:43.455Z,99910.66
2023-01-09T12:05:22.499Z,99912.38
2023-01-09T12:11:39.527Z,99888.84
2023-01-09T12:14:50.763Z,99902.09
2023-01-09T12:17:32.123Z,99888.88
2023-01-09T12:20:12.920Z,99902.25
2023-01-09T12:22:48.953Z,99897.06
2023-01-09T12:25:29.128Z,99888.44
2023-01-09T12:28:10.666Z,99887.63
2023-01-09T12:31:01.275Z,99892.91
2023-01-09T12:33:42.851Z,99896.34
2023-01-09T12:36:24.339Z,99898.09
2023-01-09T12:38:56.522Z,99885.97
2023-01-09T12:41:56.853Z,99874.47
2023-01-09T12:44:52.564Z,99897.44
2023-01-09T12:47:44.517Z,99894.91
2023-01-09T12:50:45.704Z,99900.16
2023-01-09T12:53:20.072Z,99901.88
2023-01-09T12:55:52.527Z,99899.31
2023-01-09T12:58:30.801Z,99891.31
2023-01-09T13:01:01.308Z,99848.84
2023-01-09T13:03:35.594Z,99908.06
2023-01-09T13:06:09.121Z,99906.38
2023-01-09T13:08:40.615Z,99912.53
2023-01-09T13:11:20.463Z,99913.47
2023-01-09T13:13:53.961Z,99910.91
2023-01-09T13:16:28.117Z,99910.97
2023-01-09T13:19:00.339Z,99910.13
2023-01-09T13:21:30.247Z,99913.34
2023-01-09T13:24:05.232Z,99909.94
2023-01-09T13:26:38.690Z,99918.56
2023-01-09T13:29:14.002Z,99930.94
2023-01-09T13:31:59.825Z,99930.88
2023-01-09T13:34:30.597Z,99935.19
2023-01-09T13:37:00.716Z,99930.00
2023-01-09T13:39:32.334Z,99915.63
2023-01-09T13:42:19.917Z,99921.94
2023-01-09T13:44:49.771Z,99938.56
2023-01-09T13:47:23.427Z,99935.91
2023-01-09T13:50:24.540Z,99928.84
2023-01-09T13:52:54.439Z,99934.91
2023-01-09T13:55:36.132Z,99913.75
2023-01-09T13:58:23.765Z,99926.13
2023-01-09T14:00:57.573Z,99922.59
2023-01-09T14:03:30.029Z,99939.88
2023-01-09T14:06:17.367Z,99939.78
2023-01-09T14:08:49.196Z,99945.09
2023-01-09T14:11:29.175Z,99939.56
2023-01-09T14:14:05.060Z,99936.78
2023-01-09T14:16:33.645Z,99938.78
2023-01-09T14:19:18.131Z,99937.91
2023-01-09T14:21:49.032Z,99876.72
2023-01-09T14:24:26.076Z,99933.38
2023-01-09T14:26:57.161Z,99950.06
2023-01-09T14:29:47.664Z,99952.44
2023-01-09T14:32:46.706Z,99957.69
2023-01-09T14:35:19.011Z,99960.94
2023-01-09T14:37:54.495Z,99940.38
2023-01-09T14:40:25.099Z,99851.25
2023-01-09T14:42:55.368Z,99967.06
2023-01-09T14:45:25.383Z,99976.56
2023-01-09T14:47:59.325Z,99973.81
2023-01-09T14:50:34.706Z,99978.16
2023-01-09T14:53:08.167Z,99976.34
2023-01-09T14:55:52.310Z,99970.91
2023-01-09T14:58:22.812Z,99966.22
2023-01-09T15:00:56.798Z,99985.72
2023-01-09T15:03:27.160Z,99985.72
2023-01-09T15:05:55.215Z,99924.53
2023-01-09T15:08:25.009Z,99976.66
2023-01-09T15:10:55.813Z,99978.47
2023-01-09T15:13:30.270Z,99991.63
2023-01-09T15:15:59.498Z,100001.97
2023-01-09T15:18:31.773Z,99992.41
2023-01-09T15:21:03.084Z,99967.69
2023-01-09T15:23:32.323Z,99965.81
2023-01-09T15:26:14.470Z,99992.41
2023-01-09T15:28:44.192Z,99987.81
2023-01-09T15:31:16.342Z,99999.31
2023-01-09T15:33:46.643Z,100003.63
2023-01-09T15:36:18.655Z,100000.13
2023-01-09T15:38:47.967Z,99982.97
2023-01-09T15:41:40.741Z,99964.31
2023-01-09T15:44:15.041Z,100011.22
2023-01-09T15:46:46.277Z,100007.75
2023-01-09T15:49:15.152Z,100007.69
2023-01-09T15:51:44.881Z,99898.69
2023-01-09T15:54:15.743Z,100012.75
2023-01-09T15:56:46.459Z,100020.44
2023-01-09T15:59:27.034Z,100007.03
2023-01-09T16:02:14.538Z,100013.16
2023-01-09T16:04:42.907Z,100032.28
2023-01-09T16:07:16.266Z,100022.78
2023-01-09T16:09:47.530Z,100031.41
2023-01-09T16:12:23.517Z,100027.03
2023-01-09T16:14:54.361Z,100023.59
2023-01-09T16:17:27.406Z,99681.13
2023-01-09T16:19:57.983Z,99998.75
2023-01-09T16:22:28.266Z,100025.19
2023-01-09T16:24:58.649Z,100030.38
2023-01-09T16:27:30.806Z,100022.19
2023-01-09T16:29:59.997Z,100036.22
2023-01-09T16:32:30.804Z,100041.34
2023-01-09T16:35:05.395Z,100020.22
2023-01-09T16:37:33.820Z,100038.63
2023-01-09T16:40:24.312Z,100048.06
2023-01-09T16:43:01.709Z,100000.38
2023-01-09T16:45:32.903Z,99967.50
2023-01-09T16:48:01.480Z,100005.63
2023-01-09T16:50:29.839Z,100049.53
2023-01-09T16:52:58.579Z,100016.00
2023-01-09T16:55:26.549Z,100040.66
2023-01-09T16:57:56.234Z,100005.25
2023-01-09T17:00:24.544Z,100044.84
2023-01-09T17:02:52.341Z,99890.75
2023-01-09T17:05:20.201Z,100036.00
2023-01-09T17:07:48.147Z,100042.81
2023-01-09T17:10:21.932Z,100041.06
2023-01-09T17:12:50.374Z,100032.31
2023-01-09T17:15:19.560Z,100037.31
2023-01-09T17:17:47.345Z,100049.66
2023-01-09T17:20:18.103Z,100047.00
2023-01-09T17:22:46.021Z,100050.47
2023-01-09T17:25:35.418Z,100040.94
2023-01-09T17:28:21.806Z,100051.31
2023-01-09T17:30:51.150Z,100046.88
2023-01-09T17:33:20.221Z,99993.88
2023-01-09T17:35:48.054Z,100046.00
2023-01-09T17:38:16.876Z,100051.03
2023-01-09T17:40:45.121Z,100044.97
2023-01-09T17:43:13.257Z,100040.41
2023-01-09T17:45:42.499Z,100042.31
2023-01-09T17:48:16.365Z,100037.13
2023-01-09T17:50:44.804Z,100053.38
2023-01-09T17:53:12.853Z,100047.19
2023-01-09T17:55:41.528Z,99993.09
2023-01-09T17:58:19.857Z,100047.88
2023-01-09T18:00:50.670Z,100047.00
2023-01-09T18:03:23.146Z,100059.00
2023-01-09T18:05:51.257Z,100054.63
2023-01-09T18:08:19.783Z,100032.88
2023-01-09T18:10:48.766Z,100047.81
2023-01-09T18:13:16.970Z,100029.22
2023-01-09T18:15:45.489Z,100047.69
2023-01-09T18:18:14.209Z,100048.50
2023-01-09T18:20:44.246Z,100048.50
2023-01-09T18:23:13.128Z,100045.03
2023-01-09T18:25:42.428Z,100048.38
2023-01-09T18:28:11.454Z,99981.19
2023-01-09T18:30:39.429Z,100037.88
2023-01-09T18:33:07.350Z,100013.19
2023-01-09T18:35:35.198Z,100008.03
2023-01-09T18:38:04.507Z,100030.97
2023-01-09T18:40:33.247Z,99960.16
2023-01-09T18:43:04.943Z,100006.00
2023-01-09T18:45:33.253Z,100034.34
2023-01-09T18:48:01.181Z,100039.44
2023-01-09T18:50:29.067Z,100041.97
2023-01-09T18:52:57.021Z,99992.25
2023-01-09T18:55:26.540Z,100029.25
2023-01-09T18:57:56.729Z,100036.28
2023-01-09T19:00:24.884Z,99940.47
2023-01-09T19:02:52.944Z,100013.94
2023-01-09T19:05:20.824Z,100056.13
2023-01-09T19:07:48.728Z,100048.34
2023-01-09T19:10:16.942Z,100018.34
2023-01-09T19:12:46.183Z,100036.13
2023-01-09T19:15:14.129Z,100056.72
2023-01-09T19:17:42.287Z,100054.81
2023-01-09T19:20:11.582Z,100059.94
2023-01-09T19:22:39.944Z,99954.38
2023-01-09T19:25:08.684Z,100046.31
2023-01-09T19:27:36.543Z,100063.91
2023-01-09T19:30:07.471Z,100065.47
2023-01-09T19:32:35.374Z,100063.75
2023-01-09T19:35:03.185Z,100068.94
2023-01-09T19:37:31.144Z,100062.75
2023-01-09T19:39:59.307Z,100068.06
2023-01-09T19:42:27.147Z,100069.63
2023-01-09T19:44:55.067Z,100072.16
2023-01-09T19:47:24.271Z,100052.66
2023-01-09T19:49:52.098Z,100069.63
2023-01-09T19:52:20.338Z,100076.31
2023-01-09T19:54:48.383Z,100074.81
2023-01-09T19:57:16.209Z,100066.75
2023-01-09T19:59:44.233Z,100085.09
2023-01-09T20:02:13.251Z,100079.78
2023-01-09T20:04:42.363Z,100076.31
2023-01-09T20:07:10.365Z,100077.88
2023-01-09T20:09:38.459Z,100078.63
2023-01-09T20:12:06.899Z,100069.81
2023-01-09T20:14:37.184Z,100080.31
2023-01-09T20:17:05.333Z,100071.59
2023-01-09T20:19:33.782Z,100077.47
2023-01-09T20:22:03.482Z,100079.16
2023-01-09T20:24:31.441Z,100072.94
2023-01-09T20:26:59.266Z,100080.50
2023-01-09T20:29:27.180Z,100057.41
2023-01-09T20:31:55.183Z,100069.94
2023-01-09T20:34:23.114Z,100070.75
2023-01-09T20:36:51.101Z,100027.94
2023-01-09T20:39:20.452Z,100068.09
2023-01-09T20:41:48.383Z,100068.78
2023-01-09T20:44:16.769Z,100036.41
2023-01-09T20:46:48.125Z,100074.50
2023-01-09T20:49:18.365Z,100045.06
2023-01-09T20:51:47.698Z,100062.75
